sensor_id;sensor_type;location;lat;lon;timestamp;temperature;humidity
11540;DHT22;5826;54.756;9.192;2023-08-07T00:00:17;15.90;99.90
11540;DHT22;5826;54.756;9.192;2023-08-07T00:02:43;15.90;99.90
11540;DHT22;5826;54.756;9.192;2023-08-07T00:05:08;15.90;99.90
11540;DHT22;5826;54.756;9.192;2023-08-07T00:07:34;15.90;99.90
11540;DHT22;5826;54.756;9.192;2023-08-07T00:09:59;15.90;99.90
11540;DHT22;5826;54.756;9.192;2023-08-07T00:12:26;15.90;99.90
11540;DHT22;5826;54.756;9.192;2023-08-07T00:14:52;15.90;99.90
11540;DHT22;5826;54.756;9.192;2023-08-07T00:17:18;15.80;99.90
11540;DHT22;5826;54.756;9.192;2023-08-07T00:19:43;15.80;99.90
11540;DHT22;5826;54.756;9.192;2023-08-07T00:22:08;15.80;99.90
11540;DHT22;5826;54.756;9.192;2023-08-07T00:24:34;15.90;99.90
11540;DHT22;5826;54.756;9.192;2023-08-07T00:27:00;15.80;99.90
11540;DHT22;5826;54.756;9.192;2023-08-07T00:29:26;15.80;99.90
11540;DHT22;5826;54.756;9.192;2023-08-07T00:31:51;15.80;99.90
11540;DHT22;5826;54.756;9.192;2023-08-07T00:34:17;15.80;99.90
11540;DHT22;5826;54.756;9.192;2023-08-07T00:36:42;15.80;99.90
11540;DHT22;5826;54.756;9.192;2023-08-07T00:39:08;15.80;99.90
11540;DHT22;5826;54.756;9.192;2023-08-07T00:41:34;15.80;99.90
11540;DHT22;5826;54.756;9.192;2023-08-07T00:44:00;15.80;99.90
11540;DHT22;5826;54.756;9.192;2023-08-07T00:46:26;15.80;99.90
11540;DHT22;5826;54.756;9.192;2023-08-07T00:48:52;15.70;99.90
11540;DHT22;5826;54.756;9.192;2023-08-07T00:51:19;15.80;99.90
11540;DHT22;5826;54.756;9.192;2023-08-07T00:53:45;15.70;99.90
11540;DHT22;5826;54.756;9.192;2023-08-07T00:56:12;15.70;99.90
11540;DHT22;5826;54.756;9.192;2023-08-07T00:58:38;15.80;99.90
11540;DHT22;5826;54.756;9.192;2023-08-07T01:01:05;15.80;99.90
11540;DHT22;5826;54.756;9.192;2023-08-07T01:03:31;15.80;99.90
11540;DHT22;5826;54.756;9.192;2023-08-07T01:05:56;15.70;99.90
11540;DHT22;5826;54.756;9.192;2023-08-07T01:08:23;15.70;99.90
11540;DHT22;5826;54.756;9.192;2023-08-07T01:10:59;15.70;99.90
11540;DHT22;5826;54.756;9.192;2023-08-07T01:13:40;15.80;99.90
11540;DHT22;5826;54.756;9.192;2023-08-07T01:16:18;15.80;99.90
11540;DHT22;5826;54.756;9.192;2023-08-07T01:18:45;15.80;99.90
11540;DHT22;5826;54.756;9.192;2023-08-07T01:21:18;15.70;99.90
11540;DHT22;5826;54.756;9.192;2023-08-07T01:23:46;15.70;99.90
11540;DHT22;5826;54.756;9.192;2023-08-07T01:26:13;15.80;99.90
11540;DHT22;5826;54.756;9.192;2023-08-07T01:28:42;15.70;99.90
11540;DHT22;5826;54.756;9.192;2023-08-07T01:31:14;15.70;99.90
11540;DHT22;5826;54.756;9.192;2023-08-07T01:33:54;15.80;99.90
11540;DHT22;5826;54.756;9.192;2023-08-07T01:36:23;15.80;99.90
11540;DHT22;5826;54.756;9.192;2023-08-07T01:38:51;15.80;99.90
11540;DHT22;5826;54.756;9.192;2023-08-07T01:41:18;15.80;99.90
11540;DHT22;5826;54.756;9.192;2023-08-07T01:43:44;15.80;99.90
11540;DHT22;5826;54.756;9.192;2023-08-07T01:46:10;15.80;99.90
11540;DHT22;5826;54.756;9.192;2023-08-07T01:48:36;15.80;99.90
11540;DHT22;5826;54.756;9.192;2023-08-07T01:51:01;15.80;99.90
11540;DHT22;5826;54.756;9.192;2023-08-07T01:53:27;15.80;99.90
11540;DHT22;5826;54.756;9.192;2023-08-07T01:55:52;15.80;99.90
11540;DHT22;5826;54.756;9.192;2023-08-07T01:58:18;15.70;99.90
11540;DHT22;5826;54.756;9.192;2023-08-07T02:00:43;15.70;99.90
11540;DHT22;5826;54.756;9.192;2023-08-07T02:03:09;15.70;99.90
11540;DHT22;5826;54.756;9.192;2023-08-07T02:05:34;15.70;99.90
11540;DHT22;5826;54.756;9.192;2023-08-07T02:08:00;15.70;99.90
11540;DHT22;5826;54.756;9.192;2023-08-07T02:10:25;15.70;99.90
11540;DHT22;5826;54.756;9.192;2023-08-07T02:12:51;15.70;99.90
11540;DHT22;5826;54.756;9.192;2023-08-07T02:15:17;15.70;99.90
11540;DHT22;5826;54.756;9.192;2023-08-07T02:17:42;15.70;99.90
11540;DHT22;5826;54.756;9.192;2023-08-07T02:20:08;15.70;99.90
11540;DHT22;5826;54.756;9.192;2023-08-07T02:22:34;15.80;99.90
11540;DHT22;5826;54.756;9.192;2023-08-07T02:24:59;15.80;99.90
11540;DHT22;5826;54.756;9.192;2023-08-07T02:27:25;15.80;99.90
11540;DHT22;5826;54.756;9.192;2023-08-07T02:29:50;15.80;99.90
11540;DHT22;5826;54.756;9.192;2023-08-07T02:32:16;15.80;99.90
11540;DHT22;5826;54.756;9.192;2023-08-07T02:34:42;15.80;99.90
11540;DHT22;5826;54.756;9.192;2023-08-07T02:37:08;15.80;99.90
11540;DHT22;5826;54.756;9.192;2023-08-07T02:39:33;15.80;99.90
11540;DHT22;5826;54.756;9.192;2023-08-07T02:41:59;15.80;99.90
11540;DHT22;5826;54.756;9.192;2023-08-07T02:44:24;15.80;99.90
11540;DHT22;5826;54.756;9.192;2023-08-07T02:46:50;15.80;99.90
11540;DHT22;5826;54.756;9.192;2023-08-07T02:49:15;15.90;99.90
11540;DHT22;5826;54.756;9.192;2023-08-07T02:51:41;15.80;99.90
11540;DHT22;5826;54.756;9.192;2023-08-07T02:54:06;15.90;99.90
11540;DHT22;5826;54.756;9.192;2023-08-07T02:56:32;15.90;99.90
11540;DHT22;5826;54.756;9.192;2023-08-07T02:58:58;16.00;99.90
11540;DHT22;5826;54.756;9.192;2023-08-07T03:01:24;15.90;99.90
11540;DHT22;5826;54.756;9.192;2023-08-07T03:03:49;16.00;99.90
11540;DHT22;5826;54.756;9.192;2023-08-07T03:06:15;16.00;99.90
11540;DHT22;5826;54.756;9.192;2023-08-07T03:08:41;16.00;99.90
11540;DHT22;5826;54.756;9.192;2023-08-07T03:11:08;16.00;99.90
11540;DHT22;5826;54.756;9.192;2023-08-07T03:13:33;16.00;99.90
11540;DHT22;5826;54.756;9.192;2023-08-07T03:16:03;16.00;99.90
11540;DHT22;5826;54.756;9.192;2023-08-07T03:18:29;16.00;99.90
11540;DHT22;5826;54.756;9.192;2023-08-07T03:20:55;16.00;99.90
11540;DHT22;5826;54.756;9.192;2023-08-07T03:23:22;16.00;99.90
11540;DHT22;5826;54.756;9.192;2023-08-07T03:25:48;15.90;99.90
11540;DHT22;5826;54.756;9.192;2023-08-07T03:28:13;16.00;99.90
11540;DHT22;5826;54.756;9.192;2023-08-07T03:30:39;16.00;99.90
11540;DHT22;5826;54.756;9.192;2023-08-07T03:33:04;16.00;99.90
11540;DHT22;5826;54.756;9.192;2023-08-07T03:35:30;16.00;99.90
11540;DHT22;5826;54.756;9.192;2023-08-07T03:37:55;16.00;99.90
11540;DHT22;5826;54.756;9.192;2023-08-07T03:40:21;16.00;99.90
11540;DHT22;5826;54.756;9.192;2023-08-07T03:42:46;16.00;99.90
11540;DHT22;5826;54.756;9.192;2023-08-07T03:45:12;16.00;99.90
11540;DHT22;5826;54.756;9.192;2023-08-07T03:47:37;16.00;99.90
11540;DHT22;5826;54.756;9.192;2023-08-07T03:50:03;16.00;99.90
11540;DHT22;5826;54.756;9.192;2023-08-07T03:52:28;16.00;99.90
11540;DHT22;5826;54.756;9.192;2023-08-07T03:54:54;16.00;99.90
11540;DHT22;5826;54.756;9.192;2023-08-07T03:57:19;16.00;99.90
11540;DHT22;5826;54.756;9.192;2023-08-07T03:59:45;16.10;99.90
11540;DHT22;5826;54.756;9.192;2023-08-07T04:02:10;16.00;99.90
11540;DHT22;5826;54.756;9.192;2023-08-07T04:04:36;16.00;99.90
11540;DHT22;5826;54.756;9.192;2023-08-07T04:07:01;16.00;99.90
11540;DHT22;5826;54.756;9.192;2023-08-07T04:09:27;16.10;99.90
11540;DHT22;5826;54.756;9.192;2023-08-07T04:11:52;16.00;99.90
11540;DHT22;5826;54.756;9.192;2023-08-07T04:14:18;16.00;99.90
11540;DHT22;5826;54.756;9.192;2023-08-07T04:16:43;16.10;99.90
11540;DHT22;5826;54.756;9.192;2023-08-07T04:19:09;16.10;99.90
11540;DHT22;5826;54.756;9.192;2023-08-07T04:21:35;16.10;99.90
11540;DHT22;5826;54.756;9.192;2023-08-07T04:24:01;16.10;99.90
11540;DHT22;5826;54.756;9.192;2023-08-07T04:26:27;16.10;99.90
11540;DHT22;5826;54.756;9.192;2023-08-07T04:28:52;16.10;99.90
11540;DHT22;5826;54.756;9.192;2023-08-07T04:31:17;16.10;99.90
11540;DHT22;5826;54.756;9.192;2023-08-07T04:33:43;16.10;99.90
11540;DHT22;5826;54.756;9.192;2023-08-07T04:36:09;16.10;99.90
11540;DHT22;5826;54.756;9.192;2023-08-07T04:38:34;16.20;99.90
11540;DHT22;5826;54.756;9.192;2023-08-07T04:41:00;16.20;99.90
11540;DHT22;5826;54.756;9.192;2023-08-07T04:43:25;16.20;99.90
11540;DHT22;5826;54.756;9.192;2023-08-07T04:45:51;16.20;99.90
11540;DHT22;5826;54.756;9.192;2023-08-07T04:48:16;16.20;99.90
11540;DHT22;5826;54.756;9.192;2023-08-07T04:50:43;16.20;99.90
11540;DHT22;5826;54.756;9.192;2023-08-07T04:53:08;16.20;99.90
11540;DHT22;5826;54.756;9.192;2023-08-07T04:55:34;16.20;99.90
11540;DHT22;5826;54.756;9.192;2023-08-07T04:57:59;16.20;99.90
11540;DHT22;5826;54.756;9.192;2023-08-07T05:00:25;16.20;99.90
11540;DHT22;5826;54.756;9.192;2023-08-07T05:02:51;16.20;99.90
11540;DHT22;5826;54.756;9.192;2023-08-07T05:05:17;16.30;99.90
11540;DHT22;5826;54.756;9.192;2023-08-07T05:07:46;16.30;99.90
11540;DHT22;5826;54.756;9.192;2023-08-07T05:10:11;16.20;99.90
11540;DHT22;5826;54.756;9.192;2023-08-07T05:12:37;16.30;99.90
11540;DHT22;5826;54.756;9.192;2023-08-07T05:15:03;16.30;99.90
11540;DHT22;5826;54.756;9.192;2023-08-07T05:17:28;16.30;99.90
11540;DHT22;5826;54.756;9.192;2023-08-07T05:19:54;16.30;99.90
11540;DHT22;5826;54.756;9.192;2023-08-07T05:22:19;16.30;99.90
11540;DHT22;5826;54.756;9.192;2023-08-07T05:24:45;16.30;99.90
11540;DHT22;5826;54.756;9.192;2023-08-07T05:27:11;16.30;99.90
11540;DHT22;5826;54.756;9.192;2023-08-07T05:29:36;16.30;99.90
11540;DHT22;5826;54.756;9.192;2023-08-07T05:32:12;16.20;99.90
11540;DHT22;5826;54.756;9.192;2023-08-07T05:34:37;16.40;99.90
11540;DHT22;5826;54.756;9.192;2023-08-07T05:37:03;16.30;99.90
11540;DHT22;5826;54.756;9.192;2023-08-07T05:39:29;16.40;99.90
11540;DHT22;5826;54.756;9.192;2023-08-07T05:41:55;16.40;99.90
11540;DHT22;5826;54.756;9.192;2023-08-07T05:44:23;16.40;99.90
11540;DHT22;5826;54.756;9.192;2023-08-07T05:46:49;16.40;99.90
11540;DHT22;5826;54.756;9.192;2023-08-07T05:49:14;16.40;99.90
11540;DHT22;5826;54.756;9.192;2023-08-07T05:51:40;16.40;99.90
11540;DHT22;5826;54.756;9.192;2023-08-07T05:54:05;16.40;99.90
11540;DHT22;5826;54.756;9.192;2023-08-07T05:56:31;16.50;99.90
11540;DHT22;5826;54.756;9.192;2023-08-07T05:58:57;16.50;99.90
11540;DHT22;5826;54.756;9.192;2023-08-07T06:01:22;16.50;99.90
11540;DHT22;5826;54.756;9.192;2023-08-07T06:03:48;16.50;99.90
11540;DHT22;5826;54.756;9.192;2023-08-07T06:06:14;16.50;99.90
11540;DHT22;5826;54.756;9.192;2023-08-07T06:08:39;16.50;99.90
11540;DHT22;5826;54.756;9.192;2023-08-07T06:11:05;16.60;99.90
11540;DHT22;5826;54.756;9.192;2023-08-07T06:13:33;16.60;99.90
11540;DHT22;5826;54.756;9.192;2023-08-07T06:15:59;16.60;99.90
11540;DHT22;5826;54.756;9.192;2023-08-07T06:18:24;16.60;99.90
11540;DHT22;5826;54.756;9.192;2023-08-07T06:20:50;16.60;99.90
11540;DHT22;5826;54.756;9.192;2023-08-07T06:23:15;16.70;99.90
11540;DHT22;5826;54.756;9.192;2023-08-07T06:25:41;16.70;99.90
11540;DHT22;5826;54.756;9.192;2023-08-07T06:28:06;16.70;99.90
11540;DHT22;5826;54.756;9.192;2023-08-07T06:30:32;16.80;99.90
11540;DHT22;5826;54.756;9.192;2023-08-07T06:32:57;16.80;99.90
11540;DHT22;5826;54.756;9.192;2023-08-07T06:35:23;16.80;99.90
11540;DHT22;5826;54.756;9.192;2023-08-07T06:37:48;16.70;99.90
11540;DHT22;5826;54.756;9.192;2023-08-07T06:40:14;16.70;99.90
11540;DHT22;5826;54.756;9.192;2023-08-07T06:42:39;16.70;99.90
11540;DHT22;5826;54.756;9.192;2023-08-07T06:45:05;16.70;99.90
11540;DHT22;5826;54.756;9.192;2023-08-07T06:47:31;16.70;99.90
11540;DHT22;5826;54.756;9.192;2023-08-07T06:49:57;16.70;99.90
11540;DHT22;5826;54.756;9.192;2023-08-07T06:52:23;16.70;99.90
11540;DHT22;5826;54.756;9.192;2023-08-07T06:54:48;16.70;99.90
11540;DHT22;5826;54.756;9.192;2023-08-07T06:57:14;16.80;99.90
11540;DHT22;5826;54.756;9.192;2023-08-07T06:59:39;16.90;99.90
11540;DHT22;5826;54.756;9.192;2023-08-07T07:02:06;16.90;99.90
11540;DHT22;5826;54.756;9.192;2023-08-07T07:04:31;16.90;99.90
11540;DHT22;5826;54.756;9.192;2023-08-07T07:06:58;17.00;99.90
11540;DHT22;5826;54.756;9.192;2023-08-07T07:09:24;17.00;99.90
11540;DHT22;5826;54.756;9.192;2023-08-07T07:11:49;16.90;99.90
11540;DHT22;5826;54.756;9.192;2023-08-07T07:14:15;16.90;99.90
11540;DHT22;5826;54.756;9.192;2023-08-07T07:16:41;17.00;99.90
11540;DHT22;5826;54.756;9.192;2023-08-07T07:19:07;17.10;99.90
11540;DHT22;5826;54.756;9.192;2023-08-07T07:21:35;17.20;99.90
11540;DHT22;5826;54.756;9.192;2023-08-07T07:24:02;17.20;99.90
11540;DHT22;5826;54.756;9.192;2023-08-07T07:26:27;17.20;99.90
11540;DHT22;5826;54.756;9.192;2023-08-07T07:28:53;17.20;99.90
11540;DHT22;5826;54.756;9.192;2023-08-07T07:31:18;17.30;99.90
11540;DHT22;5826;54.756;9.192;2023-08-07T07:33:44;17.30;99.90
11540;DHT22;5826;54.756;9.192;2023-08-07T07:36:16;17.20;99.90
11540;DHT22;5826;54.756;9.192;2023-08-07T07:38:42;17.30;99.90
11540;DHT22;5826;54.756;9.192;2023-08-07T07:41:08;17.30;99.90
11540;DHT22;5826;54.756;9.192;2023-08-07T07:43:36;17.30;99.90
11540;DHT22;5826;54.756;9.192;2023-08-07T07:46:02;17.40;99.90
11540;DHT22;5826;54.756;9.192;2023-08-07T07:48:28;17.40;99.90
11540;DHT22;5826;54.756;9.192;2023-08-07T07:51:01;17.50;99.90
11540;DHT22;5826;54.756;9.192;2023-08-07T07:53:27;17.60;99.90
11540;DHT22;5826;54.756;9.192;2023-08-07T07:55:53;17.80;99.90
11540;DHT22;5826;54.756;9.192;2023-08-07T07:58:20;17.90;99.90
11540;DHT22;5826;54.756;9.192;2023-08-07T08:00:45;18.00;99.90
11540;DHT22;5826;54.756;9.192;2023-08-07T08:03:11;18.00;99.90
11540;DHT22;5826;54.756;9.192;2023-08-07T08:05:37;18.20;99.90
11540;DHT22;5826;54.756;9.192;2023-08-07T08:08:03;18.30;99.90
11540;DHT22;5826;54.756;9.192;2023-08-07T08:10:29;18.40;99.90
11540;DHT22;5826;54.756;9.192;2023-08-07T08:12:55;18.50;99.90
11540;DHT22;5826;54.756;9.192;2023-08-07T08:15:21;18.60;99.90
11540;DHT22;5826;54.756;9.192;2023-08-07T08:17:47;18.70;99.90
11540;DHT22;5826;54.756;9.192;2023-08-07T08:20:14;18.80;99.90
11540;DHT22;5826;54.756;9.192;2023-08-07T08:22:46;18.80;99.90
11540;DHT22;5826;54.756;9.192;2023-08-07T08:25:12;18.90;99.90
11540;DHT22;5826;54.756;9.192;2023-08-07T08:27:38;18.80;99.90
11540;DHT22;5826;54.756;9.192;2023-08-07T08:30:04;18.70;99.90
11540;DHT22;5826;54.756;9.192;2023-08-07T08:32:30;18.70;99.90
11540;DHT22;5826;54.756;9.192;2023-08-07T08:34:56;18.70;99.90
11540;DHT22;5826;54.756;9.192;2023-08-07T08:37:21;18.70;99.90
11540;DHT22;5826;54.756;9.192;2023-08-07T08:39:47;18.70;99.90
11540;DHT22;5826;54.756;9.192;2023-08-07T08:42:12;18.80;99.90
11540;DHT22;5826;54.756;9.192;2023-08-07T08:44:39;18.80;99.90
11540;DHT22;5826;54.756;9.192;2023-08-07T08:47:06;18.80;99.90
11540;DHT22;5826;54.756;9.192;2023-08-07T08:49:40;18.70;99.90
11540;DHT22;5826;54.756;9.192;2023-08-07T08:52:07;18.60;99.90
11540;DHT22;5826;54.756;9.192;2023-08-07T08:54:34;18.50;99.90
11540;DHT22;5826;54.756;9.192;2023-08-07T08:57:00;18.50;99.90
11540;DHT22;5826;54.756;9.192;2023-08-07T08:59:26;18.40;99.90
11540;DHT22;5826;54.756;9.192;2023-08-07T09:01:52;18.40;99.90
11540;DHT22;5826;54.756;9.192;2023-08-07T09:04:18;18.30;99.90
11540;DHT22;5826;54.756;9.192;2023-08-07T09:06:44;18.20;99.90
11540;DHT22;5826;54.756;9.192;2023-08-07T09:09:12;18.20;99.90
11540;DHT22;5826;54.756;9.192;2023-08-07T09:11:40;18.20;99.90
11540;DHT22;5826;54.756;9.192;2023-08-07T09:14:07;18.10;99.90
11540;DHT22;5826;54.756;9.192;2023-08-07T09:16:34;18.10;99.90
11540;DHT22;5826;54.756;9.192;2023-08-07T09:19:01;18.10;99.90
11540;DHT22;5826;54.756;9.192;2023-08-07T09:21:27;18.20;99.90
11540;DHT22;5826;54.756;9.192;2023-08-07T09:23:53;18.20;99.90
11540;DHT22;5826;54.756;9.192;2023-08-07T09:26:22;18.30;99.90
11540;DHT22;5826;54.756;9.192;2023-08-07T09:28:51;18.40;99.90
11540;DHT22;5826;54.756;9.192;2023-08-07T09:31:18;18.60;99.90
11540;DHT22;5826;54.756;9.192;2023-08-07T09:33:47;18.90;99.90
11540;DHT22;5826;54.756;9.192;2023-08-07T09:36:12;19.10;99.90
11540;DHT22;5826;54.756;9.192;2023-08-07T09:38:38;18.90;99.90
11540;DHT22;5826;54.756;9.192;2023-08-07T09:41:04;19.00;99.90
11540;DHT22;5826;54.756;9.192;2023-08-07T09:43:36;19.00;99.90
11540;DHT22;5826;54.756;9.192;2023-08-07T09:46:06;19.00;99.90
11540;DHT22;5826;54.756;9.192;2023-08-07T09:48:31;19.10;99.90
11540;DHT22;5826;54.756;9.192;2023-08-07T09:51:01;19.10;99.90
11540;DHT22;5826;54.756;9.192;2023-08-07T09:53:30;19.20;99.90
11540;DHT22;5826;54.756;9.192;2023-08-07T09:55:55;19.40;99.90
11540;DHT22;5826;54.756;9.192;2023-08-07T09:58:21;19.40;99.90
11540;DHT22;5826;54.756;9.192;2023-08-07T10:00:47;19.40;99.90
11540;DHT22;5826;54.756;9.192;2023-08-07T10:03:15;19.50;99.90
11540;DHT22;5826;54.756;9.192;2023-08-07T10:05:43;19.60;99.90
11540;DHT22;5826;54.756;9.192;2023-08-07T10:08:10;19.60;99.90
11540;DHT22;5826;54.756;9.192;2023-08-07T10:10:37;19.60;99.90
11540;DHT22;5826;54.756;9.192;2023-08-07T10:13:03;19.60;99.90
11540;DHT22;5826;54.756;9.192;2023-08-07T10:15:30;19.60;99.90
11540;DHT22;5826;54.756;9.192;2023-08-07T10:17:56;19.70;99.90
11540;DHT22;5826;54.756;9.192;2023-08-07T10:20:25;19.80;99.90
11540;DHT22;5826;54.756;9.192;2023-08-07T10:22:52;19.70;99.90
11540;DHT22;5826;54.756;9.192;2023-08-07T10:25:20;19.60;99.90
11540;DHT22;5826;54.756;9.192;2023-08-07T10:27:49;19.50;99.90
11540;DHT22;5826;54.756;9.192;2023-08-07T10:30:16;19.60;99.90
11540;DHT22;5826;54.756;9.192;2023-08-07T10:32:44;19.60;99.90
11540;DHT22;5826;54.756;9.192;2023-08-07T10:35:28;19.40;99.90
11540;DHT22;5826;54.756;9.192;2023-08-07T10:37:55;19.40;99.90
11540;DHT22;5826;54.756;9.192;2023-08-07T10:40:31;19.40;99.90
11540;DHT22;5826;54.756;9.192;2023-08-07T10:42:59;19.40;99.90
11540;DHT22;5826;54.756;9.192;2023-08-07T10:45:26;19.30;99.90
11540;DHT22;5826;54.756;9.192;2023-08-07T10:48:03;19.20;99.90
11540;DHT22;5826;54.756;9.192;2023-08-07T10:50:35;19.20;99.90
11540;DHT22;5826;54.756;9.192;2023-08-07T10:53:03;19.20;99.90
11540;DHT22;5826;54.756;9.192;2023-08-07T10:55:43;19.30;99.90
11540;DHT22;5826;54.756;9.192;2023-08-07T10:58:22;19.40;99.90
11540;DHT22;5826;54.756;9.192;2023-08-07T11:00:48;19.70;99.90
11540;DHT22;5826;54.756;9.192;2023-08-07T11:03:29;19.80;99.90
11540;DHT22;5826;54.756;9.192;2023-08-07T11:05:57;19.80;99.90
11540;DHT22;5826;54.756;9.192;2023-08-07T11:08:23;19.60;99.90
11540;DHT22;5826;54.756;9.192;2023-08-07T11:10:51;19.50;99.90
11540;DHT22;5826;54.756;9.192;2023-08-07T11:13:17;19.10;99.90
11540;DHT22;5826;54.756;9.192;2023-08-07T11:15:43;19.00;99.90
11540;DHT22;5826;54.756;9.192;2023-08-07T11:18:08;19.10;99.90
11540;DHT22;5826;54.756;9.192;2023-08-07T11:20:35;19.30;99.90
11540;DHT22;5826;54.756;9.192;2023-08-07T11:23:04;19.40;99.90
11540;DHT22;5826;54.756;9.192;2023-08-07T11:25:30;19.40;99.90
11540;DHT22;5826;54.756;9.192;2023-08-07T11:27:56;19.40;99.90
11540;DHT22;5826;54.756;9.192;2023-08-07T11:30:22;19.50;99.90
11540;DHT22;5826;54.756;9.192;2023-08-07T11:32:47;19.80;99.90
11540;DHT22;5826;54.756;9.192;2023-08-07T11:35:13;19.80;99.90
11540;DHT22;5826;54.756;9.192;2023-08-07T11:37:48;19.80;99.90
11540;DHT22;5826;54.756;9.192;2023-08-07T11:40:13;19.80;99.90
11540;DHT22;5826;54.756;9.192;2023-08-07T11:42:41;19.60;99.90
11540;DHT22;5826;54.756;9.192;2023-08-07T11:45:07;19.80;99.90
11540;DHT22;5826;54.756;9.192;2023-08-07T11:47:33;19.90;99.90
11540;DHT22;5826;54.756;9.192;2023-08-07T11:49:58;19.90;99.90
11540;DHT22;5826;54.756;9.192;2023-08-07T11:52:24;19.90;99.90
11540;DHT22;5826;54.756;9.192;2023-08-07T11:54:52;20.00;99.90
11540;DHT22;5826;54.756;9.192;2023-08-07T11:57:19;20.10;99.90
11540;DHT22;5826;54.756;9.192;2023-08-07T11:59:48;20.20;99.90
11540;DHT22;5826;54.756;9.192;2023-08-07T12:02:14;20.30;99.90
11540;DHT22;5826;54.756;9.192;2023-08-07T12:04:40;20.40;99.90
11540;DHT22;5826;54.756;9.192;2023-08-07T12:07:05;20.50;99.90
11540;DHT22;5826;54.756;9.192;2023-08-07T12:09:31;20.50;99.90
11540;DHT22;5826;54.756;9.192;2023-08-07T12:11:57;20.60;99.90
11540;DHT22;5826;54.756;9.192;2023-08-07T12:14:27;20.90;99.90
11540;DHT22;5826;54.756;9.192;2023-08-07T12:16:54;21.10;99.90
11540;DHT22;5826;54.756;9.192;2023-08-07T12:19:20;21.10;99.90
11540;DHT22;5826;54.756;9.192;2023-08-07T12:21:45;20.90;99.90
11540;DHT22;5826;54.756;9.192;2023-08-07T12:24:12;20.70;99.90
11540;DHT22;5826;54.756;9.192;2023-08-07T12:26:38;20.80;99.90
11540;DHT22;5826;54.756;9.192;2023-08-07T12:29:04;21.00;99.90
11540;DHT22;5826;54.756;9.192;2023-08-07T12:31:29;21.10;99.90
11540;DHT22;5826;54.756;9.192;2023-08-07T12:33:55;21.30;99.90
11540;DHT22;5826;54.756;9.192;2023-08-07T12:36:20;21.30;99.90
11540;DHT22;5826;54.756;9.192;2023-08-07T12:38:46;21.10;99.90
11540;DHT22;5826;54.756;9.192;2023-08-07T12:41:11;20.80;99.90
11540;DHT22;5826;54.756;9.192;2023-08-07T12:43:37;20.60;99.90
11540;DHT22;5826;54.756;9.192;2023-08-07T12:46:02;20.70;99.90
11540;DHT22;5826;54.756;9.192;2023-08-07T12:48:28;20.00;99.90
11540;DHT22;5826;54.756;9.192;2023-08-07T12:50:54;19.70;99.90
11540;DHT22;5826;54.756;9.192;2023-08-07T12:53:19;19.60;99.90
11540;DHT22;5826;54.756;9.192;2023-08-07T12:55:45;19.50;99.90
11540;DHT22;5826;54.756;9.192;2023-08-07T12:58:11;19.50;99.90
11540;DHT22;5826;54.756;9.192;2023-08-07T13:00:36;19.70;99.90
11540;DHT22;5826;54.756;9.192;2023-08-07T13:03:02;19.50;99.90
11540;DHT22;5826;54.756;9.192;2023-08-07T13:05:28;19.60;99.90
11540;DHT22;5826;54.756;9.192;2023-08-07T13:07:55;19.60;99.90
11540;DHT22;5826;54.756;9.192;2023-08-07T13:10:23;19.40;99.90
11540;DHT22;5826;54.756;9.192;2023-08-07T13:12:49;19.20;99.90
11540;DHT22;5826;54.756;9.192;2023-08-07T13:15:17;19.00;99.90
11540;DHT22;5826;54.756;9.192;2023-08-07T13:17:43;19.30;99.90
11540;DHT22;5826;54.756;9.192;2023-08-07T13:20:11;18.70;99.90
11540;DHT22;5826;54.756;9.192;2023-08-07T13:22:39;18.70;99.90
11540;DHT22;5826;54.756;9.192;2023-08-07T13:25:06;18.70;99.90
11540;DHT22;5826;54.756;9.192;2023-08-07T13:27:33;18.60;99.90
11540;DHT22;5826;54.756;9.192;2023-08-07T13:29:58;18.50;99.90
11540;DHT22;5826;54.756;9.192;2023-08-07T13:32:25;18.30;99.90
11540;DHT22;5826;54.756;9.192;2023-08-07T13:34:50;18.30;99.90
11540;DHT22;5826;54.756;9.192;2023-08-07T13:37:16;18.50;99.90
11540;DHT22;5826;54.756;9.192;2023-08-07T13:39:42;19.10;99.90
11540;DHT22;5826;54.756;9.192;2023-08-07T13:42:08;19.60;99.90
11540;DHT22;5826;54.756;9.192;2023-08-07T13:44:33;19.70;99.90
11540;DHT22;5826;54.756;9.192;2023-08-07T13:46:59;19.70;99.90
11540;DHT22;5826;54.756;9.192;2023-08-07T13:49:25;19.70;99.90
11540;DHT22;5826;54.756;9.192;2023-08-07T13:51:50;19.80;99.90
11540;DHT22;5826;54.756;9.192;2023-08-07T13:54:16;19.90;99.90
11540;DHT22;5826;54.756;9.192;2023-08-07T13:56:41;20.10;99.90
11540;DHT22;5826;54.756;9.192;2023-08-07T13:59:07;20.10;99.90
11540;DHT22;5826;54.756;9.192;2023-08-07T14:01:34;20.00;99.90
11540;DHT22;5826;54.756;9.192;2023-08-07T14:04:01;19.90;99.90
11540;DHT22;5826;54.756;9.192;2023-08-07T14:06:26;19.50;99.90
11540;DHT22;5826;54.756;9.192;2023-08-07T14:08:52;19.30;99.90
11540;DHT22;5826;54.756;9.192;2023-08-07T14:11:17;19.10;99.90
11540;DHT22;5826;54.756;9.192;2023-08-07T14:13:44;18.90;99.90
11540;DHT22;5826;54.756;9.192;2023-08-07T14:16:11;18.60;99.90
11540;DHT22;5826;54.756;9.192;2023-08-07T14:18:36;18.40;99.90
11540;DHT22;5826;54.756;9.192;2023-08-07T14:21:02;18.20;99.90
11540;DHT22;5826;54.756;9.192;2023-08-07T14:23:27;17.90;99.90
11540;DHT22;5826;54.756;9.192;2023-08-07T14:25:53;17.80;99.90
11540;DHT22;5826;54.756;9.192;2023-08-07T14:28:19;17.70;99.90
11540;DHT22;5826;54.756;9.192;2023-08-07T14:30:44;17.90;99.90
11540;DHT22;5826;54.756;9.192;2023-08-07T14:33:10;17.90;99.90
11540;DHT22;5826;54.756;9.192;2023-08-07T14:35:35;18.00;99.90
11540;DHT22;5826;54.756;9.192;2023-08-07T14:38:01;18.00;99.90
11540;DHT22;5826;54.756;9.192;2023-08-07T14:40:26;17.90;99.90
11540;DHT22;5826;54.756;9.192;2023-08-07T14:42:53;17.90;99.90
11540;DHT22;5826;54.756;9.192;2023-08-07T14:45:19;17.80;99.90
11540;DHT22;5826;54.756;9.192;2023-08-07T14:47:45;17.80;99.90
11540;DHT22;5826;54.756;9.192;2023-08-07T14:50:11;17.80;99.90
11540;DHT22;5826;54.756;9.192;2023-08-07T14:52:36;17.70;99.90
11540;DHT22;5826;54.756;9.192;2023-08-07T14:55:03;17.90;99.90
11540;DHT22;5826;54.756;9.192;2023-08-07T14:57:28;17.60;99.90
11540;DHT22;5826;54.756;9.192;2023-08-07T14:59:54;17.60;99.90
11540;DHT22;5826;54.756;9.192;2023-08-07T15:02:19;17.50;99.90
11540;DHT22;5826;54.756;9.192;2023-08-07T15:04:45;17.50;99.90
11540;DHT22;5826;54.756;9.192;2023-08-07T15:07:11;17.60;99.90
11540;DHT22;5826;54.756;9.192;2023-08-07T15:09:36;17.50;99.90
11540;DHT22;5826;54.756;9.192;2023-08-07T15:12:02;17.60;99.90
11540;DHT22;5826;54.756;9.192;2023-08-07T15:14:29;17.60;99.90
11540;DHT22;5826;54.756;9.192;2023-08-07T15:16:55;17.50;99.90
11540;DHT22;5826;54.756;9.192;2023-08-07T15:19:20;17.40;99.90
11540;DHT22;5826;54.756;9.192;2023-08-07T15:21:46;17.40;99.90
11540;DHT22;5826;54.756;9.192;2023-08-07T15:24:11;17.50;99.90
11540;DHT22;5826;54.756;9.192;2023-08-07T15:26:37;17.50;99.90
11540;DHT22;5826;54.756;9.192;2023-08-07T15:29:03;17.60;99.90
11540;DHT22;5826;54.756;9.192;2023-08-07T15:31:29;17.60;99.90
11540;DHT22;5826;54.756;9.192;2023-08-07T15:33:55;17.60;99.90
11540;DHT22;5826;54.756;9.192;2023-08-07T15:36:22;17.60;99.90
11540;DHT22;5826;54.756;9.192;2023-08-07T15:38:48;17.50;99.90